sensor_id;sensor_type;location;lat;lon;timestamp;P1;durP1;ratioP1;P2;durP2;ratioP2
11054;SDS011;5580;50.106;8.702;2023-09-08T00:00:55;15.87;;;9.83;;
11054;SDS011;5580;50.106;8.702;2023-09-08T00:03:21;17.77;;;10.00;;
11054;SDS011;5580;50.106;8.702;2023-09-08T00:05:46;16.97;;;10.00;;
11054;SDS011;5580;50.106;8.702;2023-09-08T00:08:12;15.10;;;10.30;;
11054;SDS011;5580;50.106;8.702;2023-09-08T00:10:37;15.50;;;10.10;;
11054;SDS011;5580;50.106;8.702;2023-09-08T00:13:03;16.07;;;10.03;;
11054;SDS011;5580;50.106;8.702;2023-09-08T00:15:29;17.33;;;10.00;;
11054;SDS011;5580;50.106;8.702;2023-09-08T00:17:55;18.50;;;11.10;;
11054;SDS011;5580;50.106;8.702;2023-09-08T00:20:21;15.27;;;10.03;;
11054;SDS011;5580;50.106;8.702;2023-09-08T00:22:47;18.93;;;11.10;;
11054;SDS011;5580;50.106;8.702;2023-09-08T00:25:13;18.27;;;10.93;;
11054;SDS011;5580;50.106;8.702;2023-09-08T00:27:38;14.53;;;10.07;;
11054;SDS011;5580;50.106;8.702;2023-09-08T00:30:04;19.37;;;10.40;;
11054;SDS011;5580;50.106;8.702;2023-09-08T00:32:31;16.70;;;10.40;;
11054;SDS011;5580;50.106;8.702;2023-09-08T00:34:56;18.07;;;11.23;;
11054;SDS011;5580;50.106;8.702;2023-09-08T00:37:22;16.80;;;10.60;;
11054;SDS011;5580;50.106;8.702;2023-09-08T00:39:47;16.30;;;11.17;;
11054;SDS011;5580;50.106;8.702;2023-09-08T00:42:13;19.53;;;11.13;;
11054;SDS011;5580;50.106;8.702;2023-09-08T00:44:38;19.93;;;10.50;;
11054;SDS011;5580;50.106;8.702;2023-09-08T00:47:04;15.03;;;10.23;;
11054;SDS011;5580;50.106;8.702;2023-09-08T00:49:30;18.33;;;10.73;;
11054;SDS011;5580;50.106;8.702;2023-09-08T00:51:55;14.77;;;10.43;;
11054;SDS011;5580;50.106;8.702;2023-09-08T00:54:21;15.67;;;10.50;;
11054;SDS011;5580;50.106;8.702;2023-09-08T00:56:48;16.53;;;10.43;;
11054;SDS011;5580;50.106;8.702;2023-09-08T00:59:18;15.47;;;10.63;;
11054;SDS011;5580;50.106;8.702;2023-09-08T01:01:44;17.00;;;10.60;;
11054;SDS011;5580;50.106;8.702;2023-09-08T01:04:09;15.93;;;10.40;;
11054;SDS011;5580;50.106;8.702;2023-09-08T01:06:35;19.03;;;10.53;;
11054;SDS011;5580;50.106;8.702;2023-09-08T01:09:02;16.03;;;10.70;;
11054;SDS011;5580;50.106;8.702;2023-09-08T01:11:28;14.93;;;10.23;;
11054;SDS011;5580;50.106;8.702;2023-09-08T01:13:55;17.90;;;10.00;;
11054;SDS011;5580;50.106;8.702;2023-09-08T01:16:20;17.80;;;9.83;;
11054;SDS011;5580;50.106;8.702;2023-09-08T01:18:46;18.10;;;9.83;;
11054;SDS011;5580;50.106;8.702;2023-09-08T01:26:41;22.37;;;9.90;;
11054;SDS011;5580;50.106;8.702;2023-09-08T01:29:07;15.33;;;9.40;;
11054;SDS011;5580;50.106;8.702;2023-09-08T01:31:36;14.90;;;9.07;;
11054;SDS011;5580;50.106;8.702;2023-09-08T01:34:03;14.67;;;9.03;;
11054;SDS011;5580;50.106;8.702;2023-09-08T01:36:32;12.60;;;9.27;;
11054;SDS011;5580;50.106;8.702;2023-09-08T01:38:59;16.43;;;10.00;;
11054;SDS011;5580;50.106;8.702;2023-09-08T01:41:25;15.70;;;9.37;;
11054;SDS011;5580;50.106;8.702;2023-09-08T01:43:50;14.53;;;9.30;;
11054;SDS011;5580;50.106;8.702;2023-09-08T01:46:16;13.53;;;9.23;;
11054;SDS011;5580;50.106;8.702;2023-09-08T01:48:41;14.97;;;9.13;;
11054;SDS011;5580;50.106;8.702;2023-09-08T01:51:07;15.13;;;8.97;;
11054;SDS011;5580;50.106;8.702;2023-09-08T01:53:33;15.57;;;8.80;;
11054;SDS011;5580;50.106;8.702;2023-09-08T01:55:59;14.53;;;9.57;;
11054;SDS011;5580;50.106;8.702;2023-09-08T01:58:24;14.50;;;9.87;;
11054;SDS011;5580;50.106;8.702;2023-09-08T02:00:51;15.17;;;9.33;;
11054;SDS011;5580;50.106;8.702;2023-09-08T02:03:17;15.47;;;9.60;;
11054;SDS011;5580;50.106;8.702;2023-09-08T02:05:42;16.47;;;10.03;;
11054;SDS011;5580;50.106;8.702;2023-09-08T02:08:09;16.77;;;9.97;;
11054;SDS011;5580;50.106;8.702;2023-09-08T02:10:35;14.07;;;8.87;;
11054;SDS011;5580;50.106;8.702;2023-09-08T02:13:00;15.30;;;9.43;;
11054;SDS011;5580;50.106;8.702;2023-09-08T02:15:26;13.10;;;9.20;;
11054;SDS011;5580;50.106;8.702;2023-09-08T02:17:54;14.73;;;9.80;;
11054;SDS011;5580;50.106;8.702;2023-09-08T02:20:21;15.63;;;9.40;;
11054;SDS011;5580;50.106;8.702;2023-09-08T02:22:46;14.53;;;9.57;;
11054;SDS011;5580;50.106;8.702;2023-09-08T02:25:15;15.43;;;9.60;;
11054;SDS011;5580;50.106;8.702;2023-09-08T02:27:40;16.83;;;9.53;;
11054;SDS011;5580;50.106;8.702;2023-09-08T02:30:06;16.67;;;9.30;;
11054;SDS011;5580;50.106;8.702;2023-09-08T02:32:32;16.47;;;9.50;;
11054;SDS011;5580;50.106;8.702;2023-09-08T02:34:57;14.50;;;9.60;;
11054;SDS011;5580;50.106;8.702;2023-09-08T02:37:23;13.37;;;9.13;;
11054;SDS011;5580;50.106;8.702;2023-09-08T02:39:48;15.37;;;9.70;;
11054;SDS011;5580;50.106;8.702;2023-09-08T02:42:14;13.47;;;9.17;;
11054;SDS011;5580;50.106;8.702;2023-09-08T02:44:39;15.20;;;9.67;;
11054;SDS011;5580;50.106;8.702;2023-09-08T02:47:05;14.17;;;9.80;;
11054;SDS011;5580;50.106;8.702;2023-09-08T02:49:31;16.17;;;9.67;;
11054;SDS011;5580;50.106;8.702;2023-09-08T02:51:57;15.17;;;9.40;;
11054;SDS011;5580;50.106;8.702;2023-09-08T02:54:22;15.67;;;9.37;;
11054;SDS011;5580;50.106;8.702;2023-09-08T02:56:48;18.10;;;10.33;;
11054;SDS011;5580;50.106;8.702;2023-09-08T02:59:13;15.97;;;10.13;;
11054;SDS011;5580;50.106;8.702;2023-09-08T03:01:39;15.40;;;9.43;;
11054;SDS011;5580;50.106;8.702;2023-09-08T03:04:05;15.00;;;9.60;;
11054;SDS011;5580;50.106;8.702;2023-09-08T03:06:30;14.77;;;9.30;;
11054;SDS011;5580;50.106;8.702;2023-09-08T03:08:58;17.00;;;9.20;;
11054;SDS011;5580;50.106;8.702;2023-09-08T03:11:23;14.70;;;9.20;;
11054;SDS011;5580;50.106;8.702;2023-09-08T03:13:49;14.20;;;8.90;;
11054;SDS011;5580;50.106;8.702;2023-09-08T03:16:15;13.80;;;8.67;;
11054;SDS011;5580;50.106;8.702;2023-09-08T03:18:41;12.73;;;8.83;;
11054;SDS011;5580;50.106;8.702;2023-09-08T03:21:06;13.93;;;9.17;;
11054;SDS011;5580;50.106;8.702;2023-09-08T03:23:39;15.10;;;8.57;;
11054;SDS011;5580;50.106;8.702;2023-09-08T03:26:06;19.87;;;8.93;;
11054;SDS011;5580;50.106;8.702;2023-09-08T03:28:32;13.87;;;9.17;;
11054;SDS011;5580;50.106;8.702;2023-09-08T03:30:58;14.00;;;9.00;;
11054;SDS011;5580;50.106;8.702;2023-09-08T03:33:24;13.60;;;9.17;;
11054;SDS011;5580;50.106;8.702;2023-09-08T03:35:50;14.43;;;9.43;;
11054;SDS011;5580;50.106;8.702;2023-09-08T03:38:15;15.20;;;9.20;;
11054;SDS011;5580;50.106;8.702;2023-09-08T03:40:41;13.90;;;8.83;;
11054;SDS011;5580;50.106;8.702;2023-09-08T03:43:07;14.00;;;8.90;;
11054;SDS011;5580;50.106;8.702;2023-09-08T03:45:33;15.33;;;9.37;;
11054;SDS011;5580;50.106;8.702;2023-09-08T03:47:58;14.67;;;9.13;;
11054;SDS011;5580;50.106;8.702;2023-09-08T03:50:24;13.67;;;9.20;;
11054;SDS011;5580;50.106;8.702;2023-09-08T03:52:49;15.00;;;9.30;;
11054;SDS011;5580;50.106;8.702;2023-09-08T03:55:15;17.17;;;9.20;;
11054;SDS011;5580;50.106;8.702;2023-09-08T03:57:42;14.17;;;8.80;;
11054;SDS011;5580;50.106;8.702;2023-09-08T04:00:07;14.77;;;9.40;;
11054;SDS011;5580;50.106;8.702;2023-09-08T04:02:35;17.23;;;9.97;;
11054;SDS011;5580;50.106;8.702;2023-09-08T04:05:01;16.47;;;10.40;;
11054;SDS011;5580;50.106;8.702;2023-09-08T04:07:27;14.90;;;9.40;;
11054;SDS011;5580;50.106;8.702;2023-09-08T04:09:52;15.37;;;8.80;;
11054;SDS011;5580;50.106;8.702;2023-09-08T04:12:18;13.93;;;9.00;;
11054;SDS011;5580;50.106;8.702;2023-09-08T04:14:44;14.73;;;9.07;;
11054;SDS011;5580;50.106;8.702;2023-09-08T04:17:09;15.33;;;9.70;;
11054;SDS011;5580;50.106;8.702;2023-09-08T04:19:35;16.37;;;8.80;;
11054;SDS011;5580;50.106;8.702;2023-09-08T04:22:01;16.27;;;9.77;;
11054;SDS011;5580;50.106;8.702;2023-09-08T04:24:26;14.80;;;8.97;;
11054;SDS011;5580;50.106;8.702;2023-09-08T04:26:52;16.03;;;9.50;;
11054;SDS011;5580;50.106;8.702;2023-09-08T04:29:17;14.67;;;9.30;;
11054;SDS011;5580;50.106;8.702;2023-09-08T04:31:43;13.90;;;9.27;;
11054;SDS011;5580;50.106;8.702;2023-09-08T04:34:09;14.93;;;9.07;;
11054;SDS011;5580;50.106;8.702;2023-09-08T04:36:34;14.47;;;8.63;;
11054;SDS011;5580;50.106;8.702;2023-09-08T04:39:00;16.70;;;9.10;;
11054;SDS011;5580;50.106;8.702;2023-09-08T04:41:25;16.03;;;8.63;;
11054;SDS011;5580;50.106;8.702;2023-09-08T04:43:51;13.70;;;8.60;;
11054;SDS011;5580;50.106;8.702;2023-09-08T04:46:17;15.10;;;8.83;;
11054;SDS011;5580;50.106;8.702;2023-09-08T04:48:43;15.57;;;9.17;;
11054;SDS011;5580;50.106;8.702;2023-09-08T04:51:08;15.97;;;9.20;;
11054;SDS011;5580;50.106;8.702;2023-09-08T04:53:34;18.73;;;9.60;;
11054;SDS011;5580;50.106;8.702;2023-09-08T04:56:01;15.37;;;9.60;;
11054;SDS011;5580;50.106;8.702;2023-09-08T04:58:27;20.90;;;9.20;;
11054;SDS011;5580;50.106;8.702;2023-09-08T05:00:52;15.63;;;9.83;;
11054;SDS011;5580;50.106;8.702;2023-09-08T05:03:18;23.37;;;9.37;;
11054;SDS011;5580;50.106;8.702;2023-09-08T05:05:44;19.93;;;9.43;;
11054;SDS011;5580;50.106;8.702;2023-09-08T05:08:10;16.27;;;9.90;;
11054;SDS011;5580;50.106;8.702;2023-09-08T05:10:35;14.97;;;9.40;;
11054;SDS011;5580;50.106;8.702;2023-09-08T05:13:01;17.27;;;9.23;;
11054;SDS011;5580;50.106;8.702;2023-09-08T05:15:26;21.97;;;9.70;;
11054;SDS011;5580;50.106;8.702;2023-09-08T05:17:52;15.53;;;9.50;;
11054;SDS011;5580;50.106;8.702;2023-09-08T05:20:18;16.83;;;9.77;;
11054;SDS011;5580;50.106;8.702;2023-09-08T05:22:43;18.03;;;9.63;;
11054;SDS011;5580;50.106;8.702;2023-09-08T05:25:09;19.73;;;9.33;;
11054;SDS011;5580;50.106;8.702;2023-09-08T05:27:35;17.43;;;9.70;;
11054;SDS011;5580;50.106;8.702;2023-09-08T05:30:01;21.30;;;10.10;;
11054;SDS011;5580;50.106;8.702;2023-09-08T05:32:26;19.27;;;10.37;;
11054;SDS011;5580;50.106;8.702;2023-09-08T05:34:52;22.27;;;9.57;;
11054;SDS011;5580;50.106;8.702;2023-09-08T05:37:17;23.03;;;9.40;;
11054;SDS011;5580;50.106;8.702;2023-09-08T05:39:43;22.67;;;10.43;;
11054;SDS011;5580;50.106;8.702;2023-09-08T05:42:08;30.17;;;10.60;;
11054;SDS011;5580;50.106;8.702;2023-09-08T05:44:34;20.27;;;10.30;;
11054;SDS011;5580;50.106;8.702;2023-09-08T05:47:00;28.60;;;11.43;;
11054;SDS011;5580;50.106;8.702;2023-09-08T05:49:25;27.10;;;11.30;;
11054;SDS011;5580;50.106;8.702;2023-09-08T05:51:51;24.63;;;10.57;;
11054;SDS011;5580;50.106;8.702;2023-09-08T05:54:17;32.33;;;10.93;;
11054;SDS011;5580;50.106;8.702;2023-09-08T05:56:43;23.93;;;10.40;;
11054;SDS011;5580;50.106;8.702;2023-09-08T05:59:09;28.43;;;11.40;;
11054;SDS011;5580;50.106;8.702;2023-09-08T06:01:35;38.97;;;11.43;;
11054;SDS011;5580;50.106;8.702;2023-09-08T06:04:02;36.43;;;11.90;;
11054;SDS011;5580;50.106;8.702;2023-09-08T06:06:27;42.20;;;12.27;;
11054;SDS011;5580;50.106;8.702;2023-09-08T06:08:54;34.40;;;11.90;;
11054;SDS011;5580;50.106;8.702;2023-09-08T06:11:19;29.17;;;11.70;;
11054;SDS011;5580;50.106;8.702;2023-09-08T06:13:45;32.13;;;12.10;;
11054;SDS011;5580;50.106;8.702;2023-09-08T06:16:10;32.83;;;12.67;;
11054;SDS011;5580;50.106;8.702;2023-09-08T06:18:36;29.03;;;11.30;;
11054;SDS011;5580;50.106;8.702;2023-09-08T06:21:08;20.50;;;10.33;;
11054;SDS011;5580;50.106;8.702;2023-09-08T06:23:34;19.67;;;9.80;;
11054;SDS011;5580;50.106;8.702;2023-09-08T06:26:00;19.53;;;10.03;;
11054;SDS011;5580;50.106;8.702;2023-09-08T06:28:26;17.60;;;9.77;;
11054;SDS011;5580;50.106;8.702;2023-09-08T06:30:52;18.63;;;9.43;;
11054;SDS011;5580;50.106;8.702;2023-09-08T06:33:18;25.23;;;10.07;;
11054;SDS011;5580;50.106;8.702;2023-09-08T06:35:45;21.93;;;9.90;;
11054;SDS011;5580;50.106;8.702;2023-09-08T06:38:12;19.93;;;8.97;;
11054;SDS011;5580;50.106;8.702;2023-09-08T06:40:37;17.53;;;9.90;;
11054;SDS011;5580;50.106;8.702;2023-09-08T06:43:03;15.87;;;8.93;;
11054;SDS011;5580;50.106;8.702;2023-09-08T06:45:29;20.33;;;9.40;;
11054;SDS011;5580;50.106;8.702;2023-09-08T06:47:54;15.73;;;9.27;;
11054;SDS011;5580;50.106;8.702;2023-09-08T06:50:23;16.90;;;9.40;;
11054;SDS011;5580;50.106;8.702;2023-09-08T06:52:49;17.37;;;9.30;;
11054;SDS011;5580;50.106;8.702;2023-09-08T06:55:15;14.73;;;9.20;;
11054;SDS011;5580;50.106;8.702;2023-09-08T06:57:42;18.27;;;9.50;;
11054;SDS011;5580;50.106;8.702;2023-09-08T07:00:08;15.63;;;9.17;;
11054;SDS011;5580;50.106;8.702;2023-09-08T07:02:36;13.83;;;9.40;;
11054;SDS011;5580;50.106;8.702;2023-09-08T07:05:02;15.97;;;9.73;;
11054;SDS011;5580;50.106;8.702;2023-09-08T07:07:32;16.13;;;9.83;;
11054;SDS011;5580;50.106;8.702;2023-09-08T07:10:02;15.37;;;9.47;;
11054;SDS011;5580;50.106;8.702;2023-09-08T07:12:29;17.10;;;10.20;;
11054;SDS011;5580;50.106;8.702;2023-09-08T07:14:54;17.67;;;10.37;;
11054;SDS011;5580;50.106;8.702;2023-09-08T07:17:21;15.63;;;10.00;;
11054;SDS011;5580;50.106;8.702;2023-09-08T07:19:48;16.43;;;9.80;;
11054;SDS011;5580;50.106;8.702;2023-09-08T07:22:14;16.13;;;10.40;;
11054;SDS011;5580;50.106;8.702;2023-09-08T07:24:40;17.37;;;9.60;;
11054;SDS011;5580;50.106;8.702;2023-09-08T07:27:06;15.00;;;9.70;;
11054;SDS011;5580;50.106;8.702;2023-09-08T07:29:32;14.67;;;9.53;;
11054;SDS011;5580;50.106;8.702;2023-09-08T07:31:57;14.30;;;9.10;;
11054;SDS011;5580;50.106;8.702;2023-09-08T07:34:23;16.00;;;9.50;;
11054;SDS011;5580;50.106;8.702;2023-09-08T07:36:49;18.50;;;9.87;;
11054;SDS011;5580;50.106;8.702;2023-09-08T07:39:15;17.97;;;10.30;;
11054;SDS011;5580;50.106;8.702;2023-09-08T07:41:40;14.90;;;9.97;;
11054;SDS011;5580;50.106;8.702;2023-09-08T07:44:06;16.93;;;10.43;;
11054;SDS011;5580;50.106;8.702;2023-09-08T07:46:32;20.03;;;10.77;;
11054;SDS011;5580;50.106;8.702;2023-09-08T07:48:59;19.97;;;10.30;;
11054;SDS011;5580;50.106;8.702;2023-09-08T07:51:25;17.30;;;10.20;;
11054;SDS011;5580;50.106;8.702;2023-09-08T07:53:52;19.60;;;10.00;;
11054;SDS011;5580;50.106;8.702;2023-09-08T07:56:18;18.20;;;9.67;;
11054;SDS011;5580;50.106;8.702;2023-09-08T07:58:44;19.33;;;9.77;;
11054;SDS011;5580;50.106;8.702;2023-09-08T08:01:10;18.77;;;10.03;;
11054;SDS011;5580;50.106;8.702;2023-09-08T08:03:37;18.60;;;10.00;;
11054;SDS011;5580;50.106;8.702;2023-09-08T08:06:03;16.70;;;10.40;;
11054;SDS011;5580;50.106;8.702;2023-09-08T08:08:29;18.10;;;9.70;;
11054;SDS011;5580;50.106;8.702;2023-09-08T08:10:55;19.40;;;9.40;;
11054;SDS011;5580;50.106;8.702;2023-09-08T08:13:21;16.53;;;9.50;;
11054;SDS011;5580;50.106;8.702;2023-09-08T08:15:46;15.30;;;9.67;;
11054;SDS011;5580;50.106;8.702;2023-09-08T08:18:12;16.13;;;9.23;;
11054;SDS011;5580;50.106;8.702;2023-09-08T08:20:38;15.70;;;9.60;;
11054;SDS011;5580;50.106;8.702;2023-09-08T08:23:04;13.83;;;8.80;;
11054;SDS011;5580;50.106;8.702;2023-09-08T08:25:31;15.13;;;9.60;;
11054;SDS011;5580;50.106;8.702;2023-09-08T08:27:57;14.90;;;9.10;;
11054;SDS011;5580;50.106;8.702;2023-09-08T08:30:23;13.07;;;8.50;;
11054;SDS011;5580;50.106;8.702;2023-09-08T08:32:49;14.27;;;8.53;;
11054;SDS011;5580;50.106;8.702;2023-09-08T08:35:16;13.13;;;8.63;;
11054;SDS011;5580;50.106;8.702;2023-09-08T08:37:42;14.87;;;8.73;;
11054;SDS011;5580;50.106;8.702;2023-09-08T08:40:11;12.77;;;8.47;;
11054;SDS011;5580;50.106;8.702;2023-09-08T08:42:38;13.17;;;8.30;;
11054;SDS011;5580;50.106;8.702;2023-09-08T08:45:04;12.07;;;8.57;;
11054;SDS011;5580;50.106;8.702;2023-09-08T08:47:30;12.23;;;8.47;;
11054;SDS011;5580;50.106;8.702;2023-09-08T08:49:57;11.37;;;8.10;;
11054;SDS011;5580;50.106;8.702;2023-09-08T08:52:23;11.23;;;8.00;;
11054;SDS011;5580;50.106;8.702;2023-09-08T08:54:50;10.97;;;7.80;;
11054;SDS011;5580;50.106;8.702;2023-09-08T08:57:16;11.07;;;7.10;;
11054;SDS011;5580;50.106;8.702;2023-09-08T08:59:42;13.50;;;7.80;;
11054;SDS011;5580;50.106;8.702;2023-09-08T09:02:09;13.67;;;8.43;;
11054;SDS011;5580;50.106;8.702;2023-09-08T09:04:37;11.47;;;7.67;;
11054;SDS011;5580;50.106;8.702;2023-09-08T09:07:03;12.57;;;7.70;;
11054;SDS011;5580;50.106;8.702;2023-09-08T09:09:31;13.23;;;8.03;;
11054;SDS011;5580;50.106;8.702;2023-09-08T09:11:57;12.43;;;8.40;;
11054;SDS011;5580;50.106;8.702;2023-09-08T09:14:23;14.83;;;7.53;;
11054;SDS011;5580;50.106;8.702;2023-09-08T09:16:49;12.17;;;7.83;;
11054;SDS011;5580;50.106;8.702;2023-09-08T09:19:19;13.83;;;7.70;;
11054;SDS011;5580;50.106;8.702;2023-09-08T09:21:52;10.73;;;7.70;;
11054;SDS011;5580;50.106;8.702;2023-09-08T09:24:38;11.43;;;7.63;;
11054;SDS011;5580;50.106;8.702;2023-09-08T09:27:11;11.97;;;7.83;;
11054;SDS011;5580;50.106;8.702;2023-09-08T09:29:49;14.30;;;7.83;;
11054;SDS011;5580;50.106;8.702;2023-09-08T09:32:16;10.13;;;7.30;;
11054;SDS011;5580;50.106;8.702;2023-09-08T09:34:48;12.37;;;7.77;;
11054;SDS011;5580;50.106;8.702;2023-09-08T09:37:16;11.10;;;7.30;;
11054;SDS011;5580;50.106;8.702;2023-09-08T09:39:42;10.27;;;7.17;;
11054;SDS011;5580;50.106;8.702;2023-09-08T09:42:07;12.90;;;7.43;;
11054;SDS011;5580;50.106;8.702;2023-09-08T09:44:33;13.57;;;7.77;;
11054;SDS011;5580;50.106;8.702;2023-09-08T09:47:00;14.97;;;7.47;;
11054;SDS011;5580;50.106;8.702;2023-09-08T09:49:25;10.83;;;7.73;;
11054;SDS011;5580;50.106;8.702;2023-09-08T09:51:56;12.33;;;7.53;;
11054;SDS011;5580;50.106;8.702;2023-09-08T09:54:23;11.30;;;7.60;;
11054;SDS011;5580;50.106;8.702;2023-09-08T09:56:49;11.97;;;7.60;;
11054;SDS011;5580;50.106;8.702;2023-09-08T09:59:16;10.67;;;6.93;;
11054;SDS011;5580;50.106;8.702;2023-09-08T10:01:42;11.67;;;7.53;;
11054;SDS011;5580;50.106;8.702;2023-09-08T10:04:08;11.47;;;7.20;;
11054;SDS011;5580;50.106;8.702;2023-09-08T10:06:36;11.83;;;7.37;;
11054;SDS011;5580;50.106;8.702;2023-09-08T10:09:03;11.57;;;7.40;;
11054;SDS011;5580;50.106;8.702;2023-09-08T10:11:49;11.67;;;7.30;;
11054;SDS011;5580;50.106;8.702;2023-09-08T10:14:17;11.60;;;7.30;;
11054;SDS011;5580;50.106;8.702;2023-09-08T10:16:44;12.10;;;7.17;;
11054;SDS011;5580;50.106;8.702;2023-09-08T10:19:14;10.83;;;7.67;;
11054;SDS011;5580;50.106;8.702;2023-09-08T10:21:41;12.57;;;7.10;;
11054;SDS011;5580;50.106;8.702;2023-09-08T10:24:21;12.13;;;7.40;;
11054;SDS011;5580;50.106;8.702;2023-09-08T10:26:58;9.87;;;7.50;;
11054;SDS011;5580;50.106;8.702;2023-09-08T10:29:33;11.50;;;7.57;;
11054;SDS011;5580;50.106;8.702;2023-09-08T10:32:00;12.00;;;7.50;;
11054;SDS011;5580;50.106;8.702;2023-09-08T10:34:27;11.43;;;7.73;;
11054;SDS011;5580;50.106;8.702;2023-09-08T10:36:55;10.73;;;7.10;;
11054;SDS011;5580;50.106;8.702;2023-09-08T10:44:43;12.40;;;7.67;;
11054;SDS011;5580;50.106;8.702;2023-09-08T10:47:12;18.07;;;8.87;;
11054;SDS011;5580;50.106;8.702;2023-09-08T10:49:38;13.00;;;7.90;;
11054;SDS011;5580;50.106;8.702;2023-09-08T10:52:05;13.97;;;8.30;;
11054;SDS011;5580;50.106;8.702;2023-09-08T10:54:55;12.57;;;7.97;;
11054;SDS011;5580;50.106;8.702;2023-09-08T10:57:21;13.33;;;7.43;;
11054;SDS011;5580;50.106;8.702;2023-09-08T11:02:49;13.33;;;7.70;;
11054;SDS011;5580;50.106;8.702;2023-09-08T11:05:16;14.23;;;8.13;;
11054;SDS011;5580;50.106;8.702;2023-09-08T11:07:42;17.33;;;8.73;;
11054;SDS011;5580;50.106;8.702;2023-09-08T11:10:09;13.90;;;7.80;;
11054;SDS011;5580;50.106;8.702;2023-09-08T11:12:36;12.50;;;8.00;;
11054;SDS011;5580;50.106;8.702;2023-09-08T11:15:03;15.70;;;8.67;;
11054;SDS011;5580;50.106;8.702;2023-09-08T11:17:31;17.13;;;8.30;;
11054;SDS011;5580;50.106;8.702;2023-09-08T11:19:57;11.27;;;7.87;;
11054;SDS011;5580;50.106;8.702;2023-09-08T11:22:24;11.13;;;7.63;;
11054;SDS011;5580;50.106;8.702;2023-09-08T11:24:55;12.20;;;7.90;;
11054;SDS011;5580;50.106;8.702;2023-09-08T11:27:25;14.87;;;8.47;;
11054;SDS011;5580;50.106;8.702;2023-09-08T11:29:52;12.07;;;7.80;;
11054;SDS011;5580;50.106;8.702;2023-09-08T11:32:18;14.97;;;7.90;;
11054;SDS011;5580;50.106;8.702;2023-09-08T11:34:44;12.40;;;7.53;;
11054;SDS011;5580;50.106;8.702;2023-09-08T11:39:38;12.53;;;7.93;;
11054;SDS011;5580;50.106;8.702;2023-09-08T11:42:04;11.80;;;7.70;;
11054;SDS011;5580;50.106;8.702;2023-09-08T11:44:31;11.23;;;7.63;;
11054;SDS011;5580;50.106;8.702;2023-09-08T11:46:57;11.97;;;7.50;;
11054;SDS011;5580;50.106;8.702;2023-09-08T11:49:24;15.40;;;7.60;;
11054;SDS011;5580;50.106;8.702;2023-09-08T11:51:50;12.90;;;7.53;;
11054;SDS011;5580;50.106;8.702;2023-09-08T11:54:16;12.37;;;7.70;;
11054;SDS011;5580;50.106;8.702;2023-09-08T11:56:42;11.80;;;7.43;;
11054;SDS011;5580;50.106;8.702;2023-09-08T11:59:10;10.40;;;7.03;;
11054;SDS011;5580;50.106;8.702;2023-09-08T12:01:38;12.57;;;7.93;;
11054;SDS011;5580;50.106;8.702;2023-09-08T12:04:03;11.47;;;7.70;;
11054;SDS011;5580;50.106;8.702;2023-09-08T12:06:29;11.67;;;7.67;;
11054;SDS011;5580;50.106;8.702;2023-09-08T12:08:55;13.57;;;7.80;;
11054;SDS011;5580;50.106;8.702;2023-09-08T12:11:31;11.67;;;7.07;;
11054;SDS011;5580;50.106;8.702;2023-09-08T12:14:00;15.47;;;7.80;;
11054;SDS011;5580;50.106;8.702;2023-09-08T12:16:26;12.17;;;7.60;;
11054;SDS011;5580;50.106;8.702;2023-09-08T12:18:52;11.83;;;7.17;;
11054;SDS011;5580;50.106;8.702;2023-09-08T12:21:17;12.30;;;8.00;;
11054;SDS011;5580;50.106;8.702;2023-09-08T12:23:46;12.00;;;8.00;;
11054;SDS011;5580;50.106;8.702;2023-09-08T12:26:16;12.53;;;7.63;;
11054;SDS011;5580;50.106;8.702;2023-09-08T12:28:42;11.27;;;7.90;;
11054;SDS011;5580;50.106;8.702;2023-09-08T12:31:08;11.23;;;7.37;;
11054;SDS011;5580;50.106;8.702;2023-09-08T12:33:41;12.43;;;7.43;;
11054;SDS011;5580;50.106;8.702;2023-09-08T12:36:18;15.57;;;7.40;;
11054;SDS011;5580;50.106;8.702;2023-09-08T12:38:50;13.30;;;7.67;;
11054;SDS011;5580;50.106;8.702;2023-09-08T12:41:17;11.10;;;7.23;;
11054;SDS011;5580;50.106;8.702;2023-09-08T12:43:43;12.10;;;7.33;;
11054;SDS011;5580;50.106;8.702;2023-09-08T12:46:09;10.20;;;7.10;;
11054;SDS011;5580;50.106;8.702;2023-09-08T12:48:35;10.90;;;7.40;;
11054;SDS011;5580;50.106;8.702;2023-09-08T12:51:00;12.07;;;7.33;;
11054;SDS011;5580;50.106;8.702;2023-09-08T12:53:27;13.27;;;7.60;;
11054;SDS011;5580;50.106;8.702;2023-09-08T12:55:59;11.47;;;7.10;;
11054;SDS011;5580;50.106;8.702;2023-09-08T12:58:24;13.60;;;7.50;;
11054;SDS011;5580;50.106;8.702;2023-09-08T13:00:50;11.07;;;7.10;;
11054;SDS011;5580;50.106;8.702;2023-09-08T13:03:16;11.57;;;7.03;;
11054;SDS011;5580;50.106;8.702;2023-09-08T13:05:41;12.00;;;7.10;;
11054;SDS011;5580;50.106;8.702;2023-09-08T13:08:07;11.77;;;7.30;;
11054;SDS011;5580;50.106;8.702;2023-09-08T13:10:32;10.70;;;6.90;;
11054;SDS011;5580;50.106;8.702;2023-09-08T13:12:58;10.57;;;7.00;;
11054;SDS011;5580;50.106;8.702;2023-09-08T13:15:24;11.20;;;7.50;;
11054;SDS011;5580;50.106;8.702;2023-09-08T13:17:49;13.32;;;7.45;;
11054;SDS011;5580;50.106;8.702;2023-09-08T13:20:15;12.05;;;7.15;;
11054;SDS011;5580;50.106;8.702;2023-09-08T13:22:40;11.80;;;7.17;;
11054;SDS011;5580;50.106;8.702;2023-09-08T13:25:06;10.37;;;7.20;;
11054;SDS011;5580;50.106;8.702;2023-09-08T13:27:32;10.00;;;6.93;;
11054;SDS011;5580;50.106;8.702;2023-09-08T13:30:10;11.40;;;7.27;;
11054;SDS011;5580;50.106;8.702;2023-09-08T13:32:38;10.27;;;7.17;;
11054;SDS011;5580;50.106;8.702;2023-09-08T13:35:04;11.70;;;6.93;;
11054;SDS011;5580;50.106;8.702;2023-09-08T13:37:31;11.87;;;6.90;;
11054;SDS011;5580;50.106;8.702;2023-09-08T13:39:57;11.90;;;6.67;;
11054;SDS011;5580;50.106;8.702;2023-09-08T13:42:22;12.63;;;7.10;;
11054;SDS011;5580;50.106;8.702;2023-09-08T13:44:48;11.77;;;6.90;;
11054;SDS011;5580;50.106;8.702;2023-09-08T13:47:14;12.17;;;6.80;;
11054;SDS011;5580;50.106;8.702;2023-09-08T13:49:40;10.60;;;7.03;;
11054;SDS011;5580;50.106;8.702;2023-09-08T13:52:05;10.30;;;6.83;;
11054;SDS011;5580;50.106;8.702;2023-09-08T13:54:31;10.47;;;6.67;;
11054;SDS011;5580;50.106;8.702;2023-09-08T13:56:58;11.27;;;6.70;;
11054;SDS011;5580;50.106;8.702;2023-09-08T13:59:26;10.40;;;6.80;;
11054;SDS011;5580;50.106;8.702;2023-09-08T14:01:53;10.80;;;6.70;;
11054;SDS011;5580;50.106;8.702;2023-09-08T14:04:19;10.80;;;6.60;;
11054;SDS011;5580;50.106;8.702;2023-09-08T14:06:45;9.63;;;6.60;;
11054;SDS011;5580;50.106;8.702;2023-09-08T14:09:10;11.73;;;6.80;;
11054;SDS011;5580;50.106;8.702;2023-09-08T14:11:36;9.90;;;6.40;;
11054;SDS011;5580;50.106;8.702;2023-09-08T14:14:02;10.97;;;6.93;;
11054;SDS011;5580;50.106;8.702;2023-09-08T14:16:28;10.67;;;6.90;;
11054;SDS011;5580;50.106;8.702;2023-09-08T14:18:54;12.37;;;7.27;;
11054;SDS011;5580;50.106;8.702;2023-09-08T14:21:20;13.20;;;7.07;;
11054;SDS011;5580;50.106;8.702;2023-09-08T14:23:46;10.50;;;6.90;;
11054;SDS011;5580;50.106;8.702;2023-09-08T14:26:11;11.07;;;6.73;;
11054;SDS011;5580;50.106;8.702;2023-09-08T14:28:37;14.37;;;7.13;;
11054;SDS011;5580;50.106;8.702;2023-09-08T14:31:03;9.10;;;6.27;;
11054;SDS011;5580;50.106;8.702;2023-09-08T14:33:29;9.93;;;6.60;;
11054;SDS011;5580;50.106;8.702;2023-09-08T14:35:55;10.10;;;6.80;;
11054;SDS011;5580;50.106;8.702;2023-09-08T14:38:21;11.15;;;7.15;;
11054;SDS011;5580;50.106;8.702;2023-09-08T14:40:54;10.85;;;6.85;;
11054;SDS011;5580;50.106;8.702;2023-09-08T14:43:21;10.43;;;6.80;;
11054;SDS011;5580;50.106;8.702;2023-09-08T14:45:46;9.33;;;6.70;;
11054;SDS011;5580;50.106;8.702;2023-09-08T14:48:12;11.82;;;7.05;;
11054;SDS011;5580;50.106;8.702;2023-09-08T14:50:37;10.23;;;7.03;;
11054;SDS011;5580;50.106;8.702;2023-09-08T14:53:03;9.93;;;6.90;;
11054;SDS011;5580;50.106;8.702;2023-09-08T14:55:29;10.30;;;6.77;;
11054;SDS011;5580;50.106;8.702;2023-09-08T14:57:54;12.63;;;7.20;;